Daiki Hasebe

Olheiro-Chefe - Shonan Bellmare
17 Jul 2027
Sábado
Processo

Personalidade

Adaptabilidade (16) Ambição (12) Controvérsia (20) Lealdade (8) Pressão (11) Profissionalismo (4) Espírito Esportivo (18) Temperamento (5)

Perfil

Estilo de Treinamento Democrático
Licença Nacional A
Determinação 7
Gestão de Pessoas 11
Motivação 10
Disciplina 9
Satisfação no Trabalho
100%
Fadiga
0%
Função Olheiro-Chefe
Salário 62.7K p/s
Contrato 14.03.2029

Desempenho

Comportamento Bom
Eficácia do Treinamento
36%
Desenvolvimento do Jogador
40%
Prevenção de Lesões
45%
Implementação Tática
20%

Eventos Recentes

Participou de uma reunião de recrutamento agora
Recomendou um alvo de transferência agora
Participou de uma reunião de recrutamento agora
Participou de uma reunião de recrutamento 7d atrás
Recomendou um alvo de transferência 7d atrás
Participou de uma reunião de recrutamento 7d atrás
Participou de uma reunião de recrutamento 7d atrás
Participou de uma reunião de recrutamento 7d atrás

Monitorando agora

117
Jogador Clube Status Habilidade Confiança Observado Última observação Último voto
Patrick Agyemang Derby County Ativo 131 / 131 40% 1 22.02.2027 -
Ilyas Ansah Hull City Negociando 140 / 141 40% 1 22.02.2027 -
Marcus Vinicius Nagoya Grampus Ativo 104 / 109 55% 1 15.02.2027 -
Đorđe Petrović Bournemouth Rejeitado 146 / 140 40% 2 08.02.2027 -
Strahinja Manojlović Radnicki Nis Ativo 95 / 112 40% 1 08.02.2027 -
Dean David Yokohama F. Marinos Ativo 104 / 107 55% 1 25.01.2027 -
Balázs Tóth Blackburn Rovers Ativo 133 / 128 40% 1 15.01.2027 -
Nathan Bishop AFC Wimbledon Ativo 101 / 105 40% 2 05.01.2027 -
Mao Hosoya Manchester City Negociando 134 / 135 67% 1 05.01.2027 Aprovar
Lukas Gütlbauer Wolfsberger AC Ativo 112 / 118 40% 6 02.01.2027 -
Matouš Trmal Teplice Ativo 132 / 123 40% 3 02.01.2027 -
Vladan Kovačević Norwich City Ativo 110 / 118 40% 2 02.01.2027 -
David Volk Dinamo Makhachkala Ativo 108 / 103 40% 1 31.12.2026 -
Daniel Iversen Preston Ativo 130 / 131 40% 2 30.12.2026 -
Josh Keeley Luton Town Ativo 113 / 114 40% 2 29.12.2026 -
Iñaki Peña Panathinaikos Ativo 148 / 151 40% 3 29.12.2026 -
Anton Zhylkin Karpaty Ativo 92 / 90 40% 2 28.12.2026 -
Arthur Beroe Ativo 98 / 117 40% 3 28.12.2026 -
Michael Cooper Sheffield United Ativo 134 / 124 40% 5 28.12.2026 -
Filip Marschall Stevenage Ativo 113 / 116 40% 4 26.12.2026 -
Osagie Onisodumeya Al Gaish Ativo 94 / 88 40% 1 25.12.2026 -
Zach Hemming Chesterfield Ativo 109 / 97 40% 1 25.12.2026 -
Killian Cahill Leyton Orient Ativo 101 / 112 40% 2 22.12.2026 -
Tom Booth Crewe Alexandra Ativo 100 / 109 40% 1 21.12.2026 -
Mohammed Galadima Aswan Ativo 110 / 96 40% 2 19.12.2026 -
Lukas Jensen Millwall Ativo 117 / 118 40% 2 19.12.2026 -
Nicolas Schmid Portsmouth Ativo 128 / 117 40% 2 19.12.2026 -
Davor Matijaš HNK Gorica Ativo 114 / 117 40% 1 19.12.2026 -
Carl Rushworth Coventry City Ativo 139 / 130 40% 2 17.12.2026 -
Murphy Cooper Plymouth Argyle Ativo 122 / 104 40% 2 17.12.2026 -
Albert Posiadała Molde Ativo 126 / 118 40% 4 16.12.2026 -
Kanya Fujimoto Stevenage Ativo 126 / 113 40% 1 15.12.2026 -
Anthony Patterson Wrexham Ativo 121 / 120 40% 3 11.12.2026 -
Tomoki Hayakawa Kashima Antlers Ativo 131 / 138 40% 4 09.12.2026 Observar
Igor Nikić Lech Ativo 132 / 117 40% 3 08.12.2026 -
Radek Vítek Middlesbrough Ativo 139 / 127 40% 2 07.12.2026 Mais informações
Koki Saito Queens Park Rangers Ativo 121 / 129 40% 1 07.12.2026 -
Artem Slesar Zorya Ativo 125 / 116 40% 1 07.12.2026 Mais informações
Marcus Bundgaard SonderjyskE Ativo 106 / 104 40% 2 04.12.2026 -
Jordan Amissah Burton Albion Ativo 107 / 98 40% 2 03.12.2026 -
Kazuki Fujita Avispa Fukuoka Ativo 131 / 133 40% 4 01.12.2026 -
Taye Ashby-Hammond Cheltenham Town Ativo 99 / 93 40% 2 29.11.2026 -
Antonio Đaković HNK Vukovar 1991 Ativo 126 / 115 40% 1 29.11.2026 -
Jack Rudoni Coventry City Ativo 128 / 124 40% 1 28.11.2026 -
Issei Ouchi Sanfrecce Hiroshima Ativo 82 / 88 40% 1 26.11.2026 -
Viktor Johansson Stoke City Ativo 132 / 141 40% 2 24.11.2026 -
George Wickens Lincoln City Ativo 110 / 115 40% 1 23.11.2026 -
Fran Vieites Exeter City Ativo 128 / 111 40% 1 21.11.2026 -
Vincent Müller Aalborg Ativo 108 / 104 40% 2 19.11.2026 -
Robby McCrorie NK Varazdin Ativo 122 / 109 40% 1 18.11.2026 -
Mateusz Kochalski Qarabag Ativo 138 / 121 40% 2 17.11.2026 -
Ryosuke Kojima Kashiwa Reysol Ativo 127 / 119 40% 3 16.11.2026 -
Dominik Takáč Slovan Bratislava Ativo 130 / 143 40% 2 15.11.2026 -
Jakub Ojrzyński Orebro Ativo 103 / 104 40% 1 15.11.2026 -
Samuel Brolin Kalmar FF Ativo 121 / 125 40% 2 13.11.2026 -
Thomas Glover Omiya Ardija Ativo 128 / 114 40% 2 13.11.2026 -
Martin Trnovský Podbrezova Ativo 121 / 110 40% 1 13.11.2026 -
Franko Kolić Istra 1961 Ativo 97 / 124 40% 3 12.11.2026 -
Heorhii Yermakov Metalist Ativo 122 / 124 40% 1 12.11.2026 -
Bento Lokomotiv Moscow Ativo 124 / 118 40% 5 09.11.2026 -
Mattias Lamhauge Stromsgodset Ativo 89 / 108 40% 1 09.11.2026 -
Ivan Pakholiuk Kolos Ativo 97 / 130 40% 1 08.11.2026 -
Raúl Rangel Brighton Ativo 135 / 133 40% 1 07.11.2026 -
Ryota Izumori Sagan Tosu Ativo 111 / 115 40% 2 06.11.2026 -
Svend Brodersen Kawasaki Frontale Ativo 119 / 128 40% 1 06.11.2026 -
Petr Kosarevskiy Sibir Ativo 103 / 110 40% 1 05.11.2026 -
Chihiro Konagaya Albirex Niigata Ativo 109 / 120 40% 1 05.11.2026 -
Marios Siabanis Volos NPS Ativo 124 / 126 40% 1 03.11.2026 -
Christian Früchtl Red Bull Salzburg Ativo 107 / 121 40% 1 03.11.2026 -
Angel Zamudio CFR Cluj Ativo 116 / 113 40% 1 02.11.2026 -
Kenta Matsumoto Kashiwa Reysol Ativo 107 / 106 40% 2 30.10.2026 -
Jan Bačkovský Dukla Prague Ativo 112 / 117 40% 1 30.10.2026 -
Oleh Bilyk Epicentr Ativo 93 / 85 40% 1 30.10.2026 -
Álvaro Fernández Deportivo La Coruña Ativo 135 / 141 40% 1 29.10.2026 -
Metod Jurhar Voluntari Ativo 127 / 109 40% 1 27.10.2026 -
Pontus Dahlberg Lillestrom Ativo 96 / 94 40% 1 27.10.2026 -
Ani Ozoemena Rivers United Ativo 93 / 94 40% 1 26.10.2026 -
Tojiro Kubo Kashiwa Reysol Ativo 121 / 127 40% 2 25.10.2026 -
Suleiman Camara Slovan Bratislava Ativo 114 / 105 40% 1 25.10.2026 -
Elías Rafn Ólafsson FC Midtjylland Ativo 130 / 116 40% 1 25.10.2026 -
Denys Ihnatenko Livyi Bereh Ativo 115 / 119 40% 1 24.10.2026 -
Abduvohid Ne'matov Nasaf Ativo 105 / 105 40% 1 22.10.2026 -
Laurenţiu Popescu Viitorul Ativo 109 / 115 40% 1 22.10.2026 -
Jacob Karlstrøm Anorthosis Ativo 128 / 128 40% 1 21.10.2026 -
Žiga Frelih NK Celje Ativo 124 / 104 40% 2 20.10.2026 -
Mustapha Lawal Shooting Stars Ativo 102 / 82 40% 1 20.10.2026 -
Matevž Vidovšek Olimpija Ljubljana Ativo 133 / 126 40% 1 19.10.2026 -
Arthur Augusto Semen Padang Ativo 107 / 100 40% 2 18.10.2026 -
Oscar Hedvall Valerenga Ativo 117 / 113 40% 2 17.10.2026 -
Sławomir Abramowicz Jagiellonia Ativo 102 / 124 40% 1 15.10.2026 -
Svetoslav Vutsov Levski Ativo 108 / 133 40% 1 15.10.2026 -
Ruslan Neshcheret Dynamo Kyiv Ativo 102 / 115 40% 2 14.10.2026 -
Ştefan Târnovanu FCSB Ativo 129 / 116 40% 1 14.10.2026 -
Louis Yamaguchi Kawasaki Frontale Ativo 114 / 125 40% 1 13.10.2026 -
Hayate Tanaka FC Tokyo Ativo 114 / 116 40% 1 12.10.2026 -
Elias Hadaya Sandefjord Ativo 112 / 116 40% 1 09.10.2026 -
Victor Aznar Cádiz Ativo 121 / 129 40% 1 09.10.2026 -
Martin Melichar Pribram Ativo 97 / 107 40% 1 08.10.2026 -
Cristopher Varela Deportivo La Guaira Ativo 118 / 115 40% 1 05.10.2026 -
Shunta Araki Vegalta Sendai Ativo 121 / 104 40% 1 02.10.2026 -
Ryo Shiohama Sagan Tosu Ativo 118 / 108 40% 1 29.09.2026 -
John Mercado Sparta Prague Ativo 129 / 119 40% 1 29.09.2026 -
Yuto Yamada Kashiwa Reysol Ativo 104 / 110 40% 1 28.09.2026 -
Oliver Petersen Helsingborg Ativo 105 / 115 40% 1 24.09.2026 -
Lucas Lund Viborg Ativo 108 / 96 40% 1 23.09.2026 -
Christian Krasnodar Ativo 133 / 124 40% 1 22.09.2026 -
Klemen Mihelak Jablonec Ativo 91 / 108 40% 1 21.09.2026 -
Yuma Obata Avispa Fukuoka Ativo 110 / 111 40% 2 16.09.2026 -
Miguel Silva Carabobo Ativo 110 / 108 40% 1 15.09.2026 -
Vincent Edafe Warri Wolves Ativo 100 / 104 40% 1 15.09.2026 -
Tim Rönning Halmstad Ativo 106 / 114 40% 1 14.09.2026 -
Sharp Uzoigwe Abia Warriors Ativo 93 / 94 40% 1 14.09.2026 -
Ángel González Libertad Ativo 110 / 98 40% 1 12.09.2026 -
Patrick Beach Melbourne City Ativo 92 / 95 40% 1 11.09.2026 -
Matthew Sutton Perth Glory Ativo 97 / 106 40% 1 17.08.2026 -
Kosuke Nakamura Gamba Osaka Ativo 124 / 106 40% 1 17.08.2026 -
Julen Agirrezabala Racing Santander Ativo 148 / 147 40% 1 01.08.2026 -